Time;durP1;ratioP1;P1;durP2;ratioP2;P2;SDS_P1;SDS_P2;PMS_P1;PMS_P2;Temp;Humidity;BMP_temperature;BMP_pressure;BME280_temperature;BME280_humidity;BME280_pressure;Samples;Min_cycle;Max_cycle;Signal;HPM_P1;HPM_P2
2023/05/27 00:00:45;;;;;;;10.82;6.45;;;15.30;99.90;;;;;;4969251;28;20489;-75
2023/05/27 00:03:14;;;;;;;11.27;5.68;;;15.20;99.90;;;;;;4970446;28;20027;-75
2023/05/27 00:05:40;;;;;;;11.77;6.40;;;15.20;99.90;;;;;;4975761;28;20086;-75
2023/05/27 00:08:14;;;;;;;11.68;6.32;;;15.20;99.90;;;;;;4972751;28;20130;-75
2023/05/27 00:10:40;;;;;;;9.43;6.05;;;15.20;99.90;;;;;;4969790;28;20031;-75
2023/05/27 00:13:08;;;;;;;10.88;6.47;;;15.10;99.90;;;;;;4969047;28;20034;-75
2023/05/27 00:15:40;;;;;;;12.23;6.72;;;15.10;99.90;;;;;;4966136;28;20023;-75
2023/05/27 00:18:09;;;;;;;11.88;6.80;;;15.10;99.90;;;;;;4969048;28;20018;-76
2023/05/27 00:20:34;;;;;;;9.32;6.22;;;15.10;99.90;;;;;;4968144;28;20076;-75
2023/05/27 00:23:00;;;;;;;9.85;6.10;;;15.10;99.90;;;;;;4969452;28;20577;-75
2023/05/27 00:25:26;;;;;;;9.90;6.13;;;15.00;99.90;;;;;;4968480;28;20102;-75
2023/05/27 00:27:51;;;;;;;9.35;6.30;;;15.00;99.90;;;;;;4965607;28;20030;-75
2023/05/27 00:30:17;;;;;;;11.52;5.82;;;15.00;99.90;;;;;;4968109;28;20117;-76
2023/05/27 00:32:43;;;;;;;12.20;6.20;;;14.90;99.90;;;;;;4969522;28;20497;-76
2023/05/27 00:35:15;;;;;;;11.00;6.28;;;14.90;99.90;;;;;;4966379;28;20038;-75
2023/05/27 00:37:41;;;;;;;11.55;6.35;;;14.90;99.90;;;;;;4966733;28;20059;-75
2023/05/27 00:40:11;;;;;;;11.85;6.18;;;14.80;99.90;;;;;;4968189;28;20027;-76
2023/05/27 00:42:37;;;;;;;10.10;5.80;;;14.80;99.90;;;;;;4968315;28;20035;-75
2023/05/27 00:45:07;;;;;;;15.80;7.25;;;14.80;99.90;;;;;;4965947;28;20121;-75
2023/05/27 00:47:34;;;;;;;10.18;6.53;;;14.70;99.90;;;;;;4968469;28;20023;-75
2023/05/27 00:50:03;;;;;;;11.43;6.53;;;14.70;99.90;;;;;;4967911;28;20046;-75
2023/05/27 00:52:29;;;;;;;10.98;6.15;;;14.70;99.90;;;;;;4972161;28;20015;-75
2023/05/27 00:54:56;;;;;;;11.02;5.70;;;14.60;99.90;;;;;;4968399;28;20038;-75
2023/05/27 00:57:31;;;;;;;11.90;5.93;;;14.60;99.90;;;;;;4967879;28;20030;-76
2023/05/27 00:59:57;;;;;;;12.90;6.38;;;14.50;99.90;;;;;;4967036;28;20027;-76
2023/05/27 01:02:23;;;;;;;8.93;4.85;;;14.50;99.90;;;;;;4967598;28;20085;-76
2023/05/27 01:04:51;;;;;;;9.57;5.32;;;14.50;99.90;;;;;;4966383;28;20093;-75
2023/05/27 01:07:41;;;;;;;19.20;6.68;;;14.50;99.90;;;;;;4966558;28;20054;-75
2023/05/27 01:10:31;;;;;;;11.10;5.80;;;14.40;99.90;;;;;;4968047;28;20046;-76
2023/05/27 01:13:06;;;;;;;9.73;5.63;;;14.50;99.90;;;;;;4970669;28;20118;-75
2023/05/27 01:15:33;;;;;;;12.55;5.80;;;14.50;99.90;;;;;;4969317;28;20058;-75
2023/05/27 01:18:03;;;;;;;11.35;5.35;;;14.50;99.90;;;;;;4972320;28;20038;-76
2023/05/27 01:20:29;;;;;;;10.85;5.75;;;14.40;99.90;;;;;;4967971;28;20037;-75
2023/05/27 01:22:57;;;;;;;14.55;6.72;;;14.40;99.90;;;;;;4971422;28;20034;-75
2023/05/27 01:25:23;;;;;;;13.20;6.47;;;14.40;99.90;;;;;;4970226;28;20037;-75
2023/05/27 01:27:49;;;;;;;13.48;7.65;;;14.40;99.90;;;;;;4965807;28;20034;-75
2023/05/27 01:30:15;;;;;;;11.02;6.47;;;14.30;99.90;;;;;;4963213;28;20070;-75
2023/05/27 01:33:00;;;;;;;10.93;6.72;;;14.30;99.90;;;;;;4966131;28;20081;-76
2023/05/27 01:36:02;;;;;;;12.80;7.13;;;14.20;99.90;;;;;;4966704;28;20041;-76
2023/05/27 01:38:28;;;;;;;10.63;6.68;;;14.20;99.90;;;;;;4956749;28;20054;-76
2023/05/27 01:40:55;;;;;;;13.15;7.65;;;14.10;99.90;;;;;;4971233;28;20071;-76
2023/05/27 01:43:21;;;;;;;14.90;7.65;;;14.10;99.90;;;;;;4967320;28;21045;-75
2023/05/27 01:45:47;;;;;;;11.85;7.45;;;14.00;99.90;;;;;;4968497;28;20047;-75
2023/05/27 01:48:13;;;;;;;13.85;7.43;;;13.90;99.90;;;;;;4967623;28;20023;-75
2023/05/27 01:50:42;;;;;;;13.10;8.38;;;13.90;99.90;;;;;;4966176;28;20027;-75
2023/05/27 01:53:07;;;;;;;11.75;7.30;;;13.80;99.90;;;;;;4970259;28;20106;-75
2023/05/27 01:55:39;;;;;;;14.15;7.18;;;13.80;99.90;;;;;;4968795;28;20126;-75
2023/05/27 01:58:08;;;;;;;15.00;7.70;;;13.80;99.90;;;;;;4967692;28;20030;-75
2023/05/27 02:00:34;;;;;;;11.43;7.20;;;13.80;99.90;;;;;;4967698;28;20036;-75
2023/05/27 02:03:11;;;;;;;13.05;7.15;;;13.70;99.90;;;;;;4967934;28;20030;-75
2023/05/27 02:05:41;;;;;;;10.77;7.05;;;13.70;99.90;;;;;;4967461;28;20118;-75
2023/05/27 02:08:10;;;;;;;9.40;6.45;;;13.70;99.90;;;;;;4969690;28;20494;-75
2023/05/27 02:10:35;;;;;;;16.35;7.50;;;13.70;99.90;;;;;;4969213;28;21955;-75
2023/05/27 02:13:01;;;;;;;14.90;6.50;;;13.60;99.90;;;;;;4965713;28;20086;-76
2023/05/27 02:15:26;;;;;;;12.95;6.88;;;13.60;99.90;;;;;;4961919;28;20035;-75
2023/05/27 02:17:55;;;;;;;13.55;6.50;;;13.60;99.90;;;;;;4962763;28;20590;-75
2023/05/27 02:20:24;;;;;;;12.25;6.53;;;13.50;99.90;;;;;;4960570;28;20105;-75
2023/05/27 02:22:50;;;;;;;8.93;5.70;;;13.50;99.90;;;;;;4969543;28;20478;-75
2023/05/27 02:25:25;;;;;;;10.32;6.13;;;13.50;99.90;;;;;;4966633;28;20437;-76
2023/05/27 02:27:56;;;;;;;14.25;6.93;;;13.50;99.90;;;;;;4967569;28;21858;-75
2023/05/27 02:30:22;;;;;;;11.75;6.57;;;13.40;99.90;;;;;;4976689;28;20045;-76
2023/05/27 02:32:50;;;;;;;9.10;5.78;;;13.40;99.90;;;;;;4966781;28;20110;-75
2023/05/27 02:35:23;;;;;;;12.85;6.47;;;13.40;99.90;;;;;;4966363;28;20102;-76
2023/05/27 02:37:57;;;;;;;13.20;5.88;;;13.40;99.90;;;;;;4962885;28;20031;-75
2023/05/27 02:40:27;;;;;;;10.68;4.97;;;13.40;99.90;;;;;;4965750;28;20062;-76
2023/05/27 02:42:53;;;;;;;9.90;4.82;;;13.40;99.90;;;;;;4966974;28;20043;-75
2023/05/27 02:45:19;;;;;;;12.73;5.72;;;13.30;99.90;;;;;;4968166;28;20388;-75
2023/05/27 02:47:45;;;;;;;13.13;5.45;;;13.30;99.90;;;;;;4964825;28;20026;-75
2023/05/27 02:50:10;;;;;;;13.75;6.05;;;13.20;99.90;;;;;;4963076;28;20101;-75
2023/05/27 02:52:36;;;;;;;11.30;6.28;;;13.20;99.90;;;;;;4961176;28;20023;-75
2023/05/27 02:55:02;;;;;;;11.52;5.57;;;13.20;99.90;;;;;;4967778;28;20182;-76
2023/05/27 02:57:27;;;;;;;13.95;5.88;;;13.20;99.90;;;;;;4966979;28;20405;-75
2023/05/27 02:59:53;;;;;;;18.25;6.30;;;13.10;99.90;;;;;;4964221;28;20034;-76
2023/05/27 03:02:19;;;;;;;16.50;6.03;;;13.10;99.90;;;;;;4962664;28;20035;-76
2023/05/27 03:04:44;;;;;;;14.23;6.10;;;13.10;99.90;;;;;;4965776;28;20058;-76
2023/05/27 03:07:10;;;;;;;11.98;5.68;;;13.10;99.90;;;;;;4966933;28;20073;-75
2023/05/27 03:09:35;;;;;;;12.43;5.60;;;13.00;99.90;;;;;;4964353;28;20073;-76
2023/05/27 03:12:10;;;;;;;10.70;5.95;;;13.00;99.90;;;;;;4967375;28;20093;-74
2023/05/27 03:14:39;;;;;;;9.63;5.50;;;12.90;99.90;;;;;;4966320;28;20034;-75
2023/05/27 03:17:08;;;;;;;14.93;6.13;;;12.90;99.90;;;;;;4969718;28;20022;-75
2023/05/27 03:19:33;;;;;;;10.68;5.57;;;12.90;99.90;;;;;;4968149;28;20043;-75
2023/05/27 03:22:00;;;;;;;13.85;5.40;;;12.80;99.90;;;;;;4963635;28;20089;-75
2023/05/27 03:24:25;;;;;;;11.00;5.57;;;12.80;99.90;;;;;;4965389;28;20053;-75
2023/05/27 03:26:51;;;;;;;8.93;5.75;;;12.80;99.90;;;;;;4965970;28;20034;-75
2023/05/27 03:29:17;;;;;;;10.77;5.80;;;12.70;99.90;;;;;;4961461;28;20069;-76
2023/05/27 03:31:45;;;;;;;15.43;5.50;;;12.70;99.90;;;;;;4964279;28;20497;-76
2023/05/27 03:34:11;;;;;;;13.32;5.57;;;12.60;99.90;;;;;;4965481;28;20062;-75
2023/05/27 03:36:39;;;;;;;9.15;5.72;;;12.60;99.90;;;;;;4972408;28;20077;-75
2023/05/27 03:39:05;;;;;;;14.27;5.57;;;12.60;99.90;;;;;;4969191;28;20058;-76
2023/05/27 03:41:31;;;;;;;10.40;5.80;;;12.60;99.90;;;;;;4974892;28;20070;-76
2023/05/27 03:43:57;;;;;;;11.55;5.95;;;12.60;99.90;;;;;;4973873;28;20100;-76
2023/05/27 03:46:23;;;;;;;11.80;5.22;;;12.60;99.90;;;;;;4974715;28;20117;-75
2023/05/27 03:48:51;;;;;;;16.67;5.90;;;12.50;99.90;;;;;;4976845;28;20060;-75
2023/05/27 03:51:26;;;;;;;11.63;5.90;;;12.50;99.90;;;;;;4973048;28;20049;-75
2023/05/27 03:53:58;;;;;;;12.15;5.85;;;12.40;99.90;;;;;;4990042;28;20429;-75
2023/05/27 03:56:26;;;;;;;10.93;5.35;;;12.40;99.90;;;;;;4973569;28;20027;-75
2023/05/27 03:58:52;;;;;;;9.75;5.45;;;12.40;99.90;;;;;;4973565;28;20493;-75
2023/05/27 04:01:20;;;;;;;10.85;5.78;;;12.40;99.90;;;;;;4973030;28;20104;-75
2023/05/27 04:03:45;;;;;;;15.55;5.82;;;12.40;99.90;;;;;;4975043;28;20030;-76
2023/05/27 04:06:11;;;;;;;10.77;5.40;;;12.40;99.90;;;;;;4973539;28;20035;-75
2023/05/27 04:08:39;;;;;;;9.27;5.90;;;12.40;99.90;;;;;;4974515;28;20486;-75
2023/05/27 04:11:04;;;;;;;9.88;5.85;;;12.40;99.90;;;;;;4970879;28;20137;-75
2023/05/27 04:13:33;;;;;;;11.23;5.53;;;12.30;99.90;;;;;;4970080;28;20163;-75
2023/05/27 04:16:11;;;;;;;9.60;5.78;;;12.40;99.90;;;;;;4972037;28;20096;-76
2023/05/27 04:18:39;;;;;;;11.63;6.07;;;12.30;99.90;;;;;;4972406;28;20397;-76
2023/05/27 04:21:05;;;;;;;13.38;5.07;;;12.30;99.90;;;;;;4970512;28;20960;-76
2023/05/27 04:23:31;;;;;;;11.25;5.45;;;12.30;99.90;;;;;;4969619;28;20062;-76
2023/05/27 04:26:06;;;;;;;12.05;5.60;;;12.30;99.90;;;;;;4971478;28;20043;-76
2023/05/27 04:28:39;;;;;;;12.68;5.45;;;12.40;99.90;;;;;;4968562;28;20048;-76
2023/05/27 04:31:05;;;;;;;11.70;5.50;;;12.40;99.90;;;;;;4967569;28;20022;-76
2023/05/27 04:33:30;;;;;;;11.43;5.55;;;12.40;99.90;;;;;;4973660;28;20034;-75
2023/05/27 04:35:56;;;;;;;11.55;6.03;;;12.40;99.90;;;;;;4973672;28;20053;-75
2023/05/27 04:38:31;;;;;;;12.73;6.20;;;12.50;99.90;;;;;;4976855;28;20033;-76
2023/05/27 04:41:05;;;;;;;14.10;6.82;;;12.50;99.90;;;;;;4974970;28;20110;-76
2023/05/27 04:43:34;;;;;;;11.75;6.07;;;12.60;99.90;;;;;;4981771;28;20027;-76
2023/05/27 04:46:00;;;;;;;9.80;5.43;;;12.60;99.90;;;;;;4966468;28;20054;-76
2023/05/27 04:48:26;;;;;;;13.52;6.35;;;12.60;99.90;;;;;;4970575;28;20042;-76
2023/05/27 04:50:54;;;;;;;9.27;4.72;;;12.70;99.90;;;;;;4969051;28;20095;-76
2023/05/27 04:53:20;;;;;;;10.43;5.53;;;12.70;99.90;;;;;;5029695;23;20066;-76
2023/05/27 04:55:46;;;;;;;12.13;5.82;;;12.80;99.90;;;;;;4968466;28;20026;-75
2023/05/27 04:58:14;;;;;;;12.07;5.78;;;12.90;99.90;;;;;;4967947;28;20038;-75
2023/05/27 05:03:39;;;;;;;15.52;5.38;;;13.00;99.90;;;;;;4966260;28;20086;-76
2023/05/27 05:06:05;;;;;;;12.73;6.32;;;13.20;99.90;;;;;;4970640;28;20031;-77
2023/05/27 05:08:34;;;;;;;12.93;5.63;;;13.30;99.90;;;;;;4970307;28;20110;-77
2023/05/27 05:10:59;;;;;;;12.73;5.57;;;13.40;99.90;;;;;;4968160;28;20099;-76
2023/05/27 05:13:28;;;;;;;14.15;6.15;;;13.50;99.90;;;;;;4967359;28;20044;-76
2023/05/27 05:15:54;;;;;;;11.30;5.18;;;13.60;99.90;;;;;;4960840;28;22084;-75
2023/05/27 05:18:23;;;;;;;14.43;5.22;;;13.70;99.90;;;;;;4960911;28;20031;-75
2023/05/27 05:20:48;;;;;;;11.30;5.38;;;13.80;99.90;;;;;;4970677;28;20031;-77
2023/05/27 05:23:14;;;;;;;11.05;5.15;;;13.90;99.90;;;;;;4966480;28;20138;-77
2023/05/27 05:25:43;;;;;;;16.67;5.82;;;13.90;99.90;;;;;;4962567;28;20379;-77
2023/05/27 05:28:08;;;;;;;11.23;5.50;;;14.00;99.90;;;;;;4981545;28;20023;-76
2023/05/27 05:30:40;;;;;;;15.02;5.72;;;14.00;99.90;;;;;;4968613;28;20054;-76
2023/05/27 05:33:06;;;;;;;11.65;5.13;;;14.10;99.90;;;;;;4969141;28;20050;-70
2023/05/27 05:35:31;;;;;;;15.35;5.32;;;14.20;99.90;;;;;;4969902;28;20026;-71
2023/05/27 05:38:00;;;;;;;16.30;5.22;;;14.20;99.90;;;;;;4967387;28;20374;-70
2023/05/27 05:40:31;;;;;;;14.43;4.88;;;14.30;99.90;;;;;;4971853;28;20102;-70
2023/05/27 05:42:57;;;;;;;11.93;4.88;;;14.30;99.90;;;;;;4979417;28;20058;-70
2023/05/27 05:45:23;;;;;;;14.85;4.10;;;14.30;99.90;;;;;;4969025;28;20571;-71
2023/05/27 05:47:48;;;;;;;12.48;4.30;;;14.20;99.90;;;;;;4966585;28;20038;-71
2023/05/27 05:50:23;;;;;;;7.53;3.72;;;14.20;99.90;;;;;;4969846;28;20077;-71
2023/05/27 05:52:51;;;;;;;11.57;3.85;;;14.10;99.90;;;;;;4971546;28;20106;-71
2023/05/27 05:55:22;;;;;;;13.82;5.47;;;14.10;99.90;;;;;;4968036;28;20386;-75
2023/05/27 05:57:48;;;;;;;14.35;4.95;;;14.10;99.90;;;;;;4979538;28;20031;-76
2023/05/27 06:00:14;;;;;;;14.32;4.80;;;14.20;99.90;;;;;;4955528;28;20031;-77
2023/05/27 06:02:40;;;;;;;16.88;4.88;;;14.30;99.90;;;;;;4979900;28;20045;-67
2023/05/27 06:05:06;;;;;;;16.63;5.15;;;14.40;99.90;;;;;;4966189;28;20030;-76
2023/05/27 06:07:41;;;;;;;13.85;4.20;;;14.50;99.90;;;;;;4967127;28;20039;-77
2023/05/27 06:10:07;;;;;;;17.85;4.50;;;14.60;99.90;;;;;;4961480;28;20034;-77
2023/05/27 06:12:32;;;;;;;13.15;5.68;;;14.60;99.90;;;;;;4962886;28;20209;-77
2023/05/27 06:14:58;;;;;;;16.25;4.93;;;14.60;99.90;;;;;;4963242;28;20109;-77
2023/05/27 06:17:23;;;;;;;16.33;4.68;;;14.70;99.90;;;;;;4969366;28;20030;-76
2023/05/27 06:19:49;;;;;;;11.00;4.43;;;14.70;99.90;;;;;;4964739;28;20037;-73
2023/05/27 06:22:15;;;;;;;13.23;4.63;;;14.80;99.90;;;;;;4963741;28;20026;-75
2023/05/27 06:24:41;;;;;;;11.38;4.47;;;14.80;99.90;;;;;;4971430;28;20027;-67
2023/05/27 06:27:10;;;;;;;14.25;4.90;;;14.90;99.90;;;;;;4965189;28;20039;-67
2023/05/27 06:29:35;;;;;;;14.55;4.80;;;14.90;99.90;;;;;;4965298;28;20034;-74
2023/05/27 06:32:07;;;;;;;19.75;5.13;;;15.00;99.90;;;;;;4964429;28;20043;-73
2023/05/27 06:34:32;;;;;;;12.75;3.97;;;15.10;99.90;;;;;;4967011;28;20050;-68
2023/05/27 06:36:58;;;;;;;12.25;4.90;;;15.10;99.90;;;;;;4967775;28;20401;-68
2023/05/27 06:39:24;;;;;;;12.43;4.25;;;15.10;99.90;;;;;;4964858;28;20113;-68
2023/05/27 06:41:49;;;;;;;11.88;4.43;;;15.30;99.90;;;;;;4960221;28;20031;-68
2023/05/27 06:44:15;;;;;;;16.05;5.18;;;15.40;99.90;;;;;;4966303;28;20034;-68
2023/05/27 06:46:41;;;;;;;13.20;4.20;;;15.50;99.80;;;;;;4960008;28;20034;-76
2023/05/27 06:49:10;;;;;;;15.60;4.97;;;15.60;99.80;;;;;;4973052;28;20381;-75
2023/05/27 06:51:43;;;;;;;14.32;4.80;;;15.60;99.40;;;;;;4971738;28;20015;-75
2023/05/27 06:54:08;;;;;;;13.95;4.88;;;15.60;99.20;;;;;;4968481;28;20062;-76
2023/05/27 06:56:34;;;;;;;11.68;4.65;;;15.60;99.10;;;;;;4980532;28;20105;-73
2023/05/27 06:59:00;;;;;;;17.98;5.07;;;15.70;99.20;;;;;;4974063;28;20033;-73
2023/05/27 07:01:31;;;;;;;9.90;3.95;;;15.60;99.10;;;;;;4977106;28;20031;-75
2023/05/27 07:04:00;;;;;;;14.50;4.32;;;15.60;99.20;;;;;;4972513;28;20031;-74
2023/05/27 07:06:28;;;;;;;14.85;5.00;;;15.50;99.10;;;;;;4972055;28;20490;-74
2023/05/27 07:09:00;;;;;;;14.27;4.95;;;15.60;99.40;;;;;;4973019;28;20030;-73
2023/05/27 07:11:29;;;;;;;15.63;4.95;;;15.60;99.50;;;;;;4973087;28;20389;-74
2023/05/27 07:14:01;;;;;;;14.45;5.13;;;15.50;99.40;;;;;;4972892;28;20359;-74
2023/05/27 07:16:32;;;;;;;13.95;4.63;;;15.50;99.20;;;;;;4972929;28;20034;-74
2023/05/27 07:19:04;;;;;;;13.70;4.72;;;15.60;99.40;;;;;;4970838;28;20247;-74
2023/05/27 07:21:29;;;;;;;14.95;4.47;;;15.60;99.50;;;;;;4972413;28;20034;-75
2023/05/27 07:23:58;;;;;;;12.88;4.20;;;15.70;99.60;;;;;;4972413;28;20031;-75
2023/05/27 07:26:26;;;;;;;13.55;5.18;;;15.80;99.50;;;;;;4972604;28;20165;-74
2023/05/27 07:29:00;;;;;;;16.35;4.63;;;15.80;99.40;;;;;;4970981;28;20114;-75
2023/05/27 07:31:27;;;;;;;12.35;4.20;;;15.90;99.10;;;;;;4972508;28;20027;-74
2023/05/27 07:33:53;;;;;;;10.48;4.88;;;15.90;99.10;;;;;;4971093;28;20041;-74
2023/05/27 07:36:18;;;;;;;15.77;4.93;;;16.00;99.20;;;;;;4979011;28;20026;-73
2023/05/27 07:38:47;;;;;;;15.35;5.07;;;16.00;98.90;;;;;;4978886;28;20522;-73
2023/05/27 07:41:13;;;;;;;12.90;5.15;;;16.10;99.00;;;;;;4971554;28;20058;-73
2023/05/27 07:43:45;;;;;;;12.48;5.60;;;16.10;98.90;;;;;;4971106;28;20026;-74
2023/05/27 07:46:17;;;;;;;17.83;5.30;;;16.20;98.70;;;;;;4971180;28;20039;-73
2023/05/27 07:48:42;;;;;;;12.50;5.40;;;16.20;98.70;;;;;;4967671;28;20518;-75
2023/05/27 07:51:08;;;;;;;11.48;4.65;;;16.30;98.60;;;;;;4972428;28;20044;-75
2023/05/27 07:53:34;;;;;;;11.23;4.60;;;16.40;98.80;;;;;;4971486;28;20556;-74
2023/05/27 07:56:08;;;;;;;18.73;4.93;;;16.50;98.40;;;;;;4972872;28;20041;-74
2023/05/27 07:58:40;;;;;;;10.90;5.20;;;16.50;98.50;;;;;;4973007;28;20038;-74
2023/05/27 08:01:05;;;;;;;12.73;5.00;;;16.60;98.30;;;;;;4976438;28;20026;-74
2023/05/27 08:03:31;;;;;;;14.82;5.25;;;16.70;98.30;;;;;;4975688;28;20109;-75
2023/05/27 08:05:59;;;;;;;11.52;4.72;;;16.80;98.20;;;;;;4970994;28;20023;-74
2023/05/27 08:08:25;;;;;;;17.98;6.13;;;16.90;98.20;;;;;;4975882;28;20113;-75
2023/05/27 08:10:51;;;;;;;13.23;5.03;;;17.00;98.00;;;;;;4971867;28;20487;-75
2023/05/27 08:13:20;;;;;;;15.13;5.35;;;17.10;98.00;;;;;;4972823;28;20019;-74
2023/05/27 08:15:48;;;;;;;10.38;5.18;;;17.10;97.80;;;;;;4972824;28;20406;-75
2023/05/27 08:18:14;;;;;;;20.75;6.07;;;17.20;97.90;;;;;;4987665;28;20076;-75
2023/05/27 08:20:40;;;;;;;17.30;4.97;;;17.20;97.70;;;;;;4973347;28;20019;-75
2023/05/27 08:23:08;;;;;;;13.77;5.15;;;17.30;97.70;;;;;;4976850;28;20027;-74
2023/05/27 08:25:34;;;;;;;11.20;4.78;;;17.30;97.50;;;;;;4975434;28;20027;-75
2023/05/27 08:28:03;;;;;;;17.70;5.10;;;17.40;97.40;;;;;;4977024;28;20415;-74
2023/05/27 08:30:29;;;;;;;13.02;5.18;;;17.40;97.60;;;;;;4979596;28;20049;-75
2023/05/27 08:32:55;;;;;;;15.38;5.47;;;17.50;97.50;;;;;;4979971;28;20058;-75
2023/05/27 08:35:21;;;;;;;15.98;5.63;;;17.60;97.30;;;;;;4977378;28;20026;-74
2023/05/27 08:37:47;;;;;;;11.95;4.45;;;17.60;97.20;;;;;;4982099;28;20098;-76
2023/05/27 08:40:18;;;;;;;14.93;5.22;;;17.70;97.30;;;;;;4980504;28;20038;-75
2023/05/27 08:42:45;;;;;;;13.80;5.20;;;17.80;97.20;;;;;;4961620;28;20118;-75
2023/05/27 08:45:11;;;;;;;14.55;4.93;;;17.80;97.10;;;;;;4984391;28;20027;-76
2023/05/27 08:47:40;;;;;;;11.35;4.97;;;17.90;97.00;;;;;;4974439;28;20100;-75
2023/05/27 08:50:09;;;;;;;11.68;5.05;;;18.00;96.80;;;;;;4970980;28;20126;-74
2023/05/27 08:52:47;;;;;;;13.90;4.88;;;18.10;96.70;;;;;;4975300;28;20019;-72
2023/05/27 08:55:23;;;;;;;14.85;4.72;;;18.20;96.80;;;;;;4973286;28;20034;-74
2023/05/27 08:57:57;;;;;;;14.93;5.47;;;18.20;96.60;;;;;;4968014;28;20055;-74
2023/05/27 09:00:29;;;;;;;15.27;5.95;;;18.40;96.60;;;;;;4975034;28;20037;-74
2023/05/27 09:02:56;;;;;;;12.68;4.43;;;18.50;96.30;;;;;;4970445;28;20038;-74
2023/05/27 09:05:30;;;;;;;10.93;4.97;;;18.60;96.00;;;;;;4977804;28;20062;-75
2023/05/27 09:07:59;;;;;;;13.13;5.25;;;18.60;95.80;;;;;;4978376;28;20030;-74
2023/05/27 09:10:42;;;;;;;12.10;5.65;;;18.70;95.90;;;;;;4982953;28;20401;-73
2023/05/27 09:13:08;;;;;;;12.20;4.77;;;18.80;95.60;;;;;;4976946;28;20027;-76
2023/05/27 09:15:37;;;;;;;11.68;5.00;;;18.90;95.40;;;;;;4976427;28;20038;-76
2023/05/27 09:18:03;;;;;;;22.45;6.07;;;19.00;95.30;;;;;;4975801;28;20022;-76
2023/05/27 09:20:30;;;;;;;11.02;5.20;;;19.00;95.10;;;;;;4974474;28;20034;-76
2023/05/27 09:23:08;;;;;;;15.23;5.05;;;19.10;94.80;;;;;;4976643;28;20096;-76
2023/05/27 09:25:39;;;;;;;11.63;4.90;;;19.20;94.60;;;;;;4976816;28;20041;-76
2023/05/27 09:28:07;;;;;;;13.10;5.35;;;19.30;94.40;;;;;;4976142;28;20027;-77
2023/05/27 09:30:32;;;;;;;11.15;4.55;;;19.40;94.20;;;;;;4976070;28;20582;-76
2023/05/27 09:33:04;;;;;;;12.65;5.03;;;19.40;94.00;;;;;;4975070;28;20073;-76
2023/05/27 09:35:30;;;;;;;15.27;5.40;;;19.50;93.90;;;;;;4975198;28;20023;-76
2023/05/27 09:38:08;;;;;;;11.52;5.60;;;19.60;93.80;;;;;;4975707;28;20030;-76
2023/05/27 09:40:36;;;;;;;11.70;5.35;;;19.70;93.30;;;;;;4975756;28;20027;-75
2023/05/27 09:43:02;;;;;;;12.15;5.05;;;19.70;93.40;;;;;;4973926;28;20240;-75
2023/05/27 09:45:32;;;;;;;12.27;4.55;;;19.80;93.20;;;;;;4974933;28;20045;-76
2023/05/27 09:48:03;;;;;;;17.25;5.15;;;19.90;92.60;;;;;;4975295;28;20386;-77
2023/05/27 09:50:32;;;;;;;14.15;5.78;;;19.90;92.50;;;;;;4975616;28;20042;-76
2023/05/27 09:53:04;;;;;;;12.43;4.78;;;20.00;92.20;;;;;;4975724;28;20286;-76
2023/05/27 09:55:34;;;;;;;11.18;5.05;;;20.10;92.40;;;;;;4976475;28;20031;-77
2023/05/27 09:58:06;;;;;;;17.85;6.18;;;20.20;92.00;;;;;;4985382;28;20027;-77
2023/05/27 10:00:41;;;;;;;13.45;5.88;;;20.30;91.90;;;;;;4985513;28;20023;-78
2023/05/27 10:03:11;;;;;;;10.43;5.45;;;20.40;91.50;;;;;;4984118;28;20030;-78
2023/05/27 10:05:38;;;;;;;12.70;5.10;;;20.50;91.10;;;;;;4981172;28;20023;-78
2023/05/27 10:08:13;;;;;;;11.32;5.50;;;20.50;90.90;;;;;;4986042;28;20078;-77
2023/05/27 10:10:39;;;;;;;11.27;4.78;;;20.50;90.80;;;;;;4993479;28;20030;-77
2023/05/27 10:13:09;;;;;;;11.20;4.90;;;20.50;90.90;;;;;;5006172;28;20044;-78
2023/05/27 10:15:35;;;;;;;10.93;5.07;;;20.50;90.90;;;;;;4987728;28;20026;-78
2023/05/27 10:18:27;;;;;;;16.65;5.72;;;20.60;90.60;;;;;;4987251;28;20015;-78
2023/05/27 10:20:54;;;;;;;11.35;5.93;;;20.50;90.50;;;;;;4966688;29;20073;-78
2023/05/27 10:23:21;;;;;;;14.30;5.63;;;20.70;89.30;;;;;;4991144;28;20034;-78
2023/05/27 10:26:07;;;;;;;15.15;6.53;;;20.90;87.60;;;;;;4982431;28;20324;-77
2023/05/27 10:28:42;;;;;;;10.95;5.57;;;21.00;87.10;;;;;;4979859;28;20387;-77
2023/05/27 10:31:08;;;;;;;14.48;6.35;;;21.10;86.30;;;;;;4974940;28;20532;-76
2023/05/27 10:33:39;;;;;;;10.60;5.80;;;21.20;85.10;;;;;;4972839;28;20023;-76
2023/05/27 10:36:11;;;;;;;8.25;4.88;;;21.30;85.50;;;;;;4953163;29;20023;-76
2023/05/27 10:38:55;;;;;;;9.07;5.68;;;21.30;84.80;;;;;;4968725;28;20019;-78
2023/05/27 10:41:22;;;;;;;13.07;5.57;;;21.40;82.90;;;;;;4975188;28;20075;-78
2023/05/27 10:43:56;;;;;;;9.52;5.35;;;21.30;82.50;;;;;;4976079;28;20473;-78
2023/05/27 10:46:26;;;;;;;12.43;5.93;;;21.40;82.60;;;;;;4975636;28;20469;-78
2023/05/27 10:48:52;;;;;;;10.02;5.32;;;21.50;82.00;;;;;;4974994;28;20023;-78
2023/05/27 10:51:18;;;;;;;10.75;5.07;;;21.50;81.70;;;;;;4977630;28;20077;-76
2023/05/27 10:53:44;;;;;;;11.50;6.00;;;21.50;82.10;;;;;;4971784;28;20485;-75
2023/05/27 10:56:10;;;;;;;8.85;5.30;;;21.60;82.60;;;;;;4963217;28;20473;-76
2023/05/27 10:58:38;;;;;;;10.27;5.40;;;21.60;82.20;;;;;;4964221;28;20041;-76
2023/05/27 11:01:10;;;;;;;7.95;4.13;;;21.70;82.30;;;;;;4967063;28;20056;-77
2023/05/27 11:04:01;;;;;;;8.80;5.03;;;21.80;82.00;;;;;;4970445;28;20154;-75
2023/05/27 11:06:29;;;;;;;12.13;5.57;;;21.80;82.50;;;;;;4963902;28;20050;-74
2023/05/27 11:09:03;;;;;;;9.85;5.15;;;21.80;81.60;;;;;;4971037;28;20027;-75
2023/05/27 11:11:44;;;;;;;10.40;4.93;;;21.90;80.80;;;;;;4965120;28;20062;-75
2023/05/27 11:14:10;;;;;;;7.80;4.93;;;21.90;81.00;;;;;;4963303;28;20500;-75
2023/05/27 11:16:35;;;;;;;9.75;5.35;;;21.90;80.00;;;;;;4964952;28;20110;-75
2023/05/27 11:19:01;;;;;;;8.07;5.15;;;21.90;80.00;;;;;;4969422;28;20117;-74
2023/05/27 11:21:27;;;;;;;9.68;5.45;;;21.90;78.90;;;;;;4965122;28;20089;-75
2023/05/27 11:23:53;;;;;;;13.02;5.20;;;21.90;79.00;;;;;;4966908;28;20587;-75
2023/05/27 11:26:21;;;;;;;15.10;6.75;;;21.90;79.00;;;;;;4966363;28;20015;-76
2023/05/27 11:28:50;;;;;;;16.55;6.43;;;22.00;79.00;;;;;;4978100;28;20031;-75
2023/05/27 11:31:17;;;;;;;10.60;4.78;;;22.00;79.00;;;;;;4965963;28;20545;-74
2023/05/27 11:33:44;;;;;;;9.07;4.65;;;22.00;78.20;;;;;;4961428;28;20023;-75
2023/05/27 11:36:14;;;;;;;10.90;5.78;;;22.00;78.50;;;;;;4968639;28;20027;-73
2023/05/27 11:39:00;;;;;;;12.13;5.60;;;22.00;78.80;;;;;;4974735;28;20022;-76
2023/05/27 11:41:32;;;;;;;9.60;5.03;;;22.00;78.80;;;;;;4968878;28;20458;-75
2023/05/27 11:44:05;;;;;;;9.75;5.55;;;22.00;78.10;;;;;;4966340;28;20110;-76
2023/05/27 11:46:42;;;;;;;9.00;5.43;;;22.00;77.40;;;;;;4959574;28;20634;-75
2023/05/27 11:49:15;;;;;;;12.25;5.05;;;22.00;77.80;;;;;;4966845;28;20398;-75
2023/05/27 11:51:46;;;;;;;10.73;5.90;;;22.10;78.20;;;;;;4969365;28;20022;-76
2023/05/27 11:54:26;;;;;;;8.98;5.35;;;22.20;77.00;;;;;;4965045;28;20034;-75
2023/05/27 11:56:54;;;;;;;12.02;5.75;;;22.30;75.90;;;;;;4966909;28;20548;-77
2023/05/27 11:59:21;;;;;;;11.35;6.40;;;22.30;76.00;;;;;;4964373;28;20023;-76
2023/05/27 12:01:47;;;;;;;16.40;6.68;;;22.30;75.10;;;;;;4969368;28;20482;-76
2023/05/27 12:04:13;;;;;;;10.15;4.72;;;22.30;75.00;;;;;;4968721;28;20027;-76
2023/05/27 12:06:48;;;;;;;10.18;5.25;;;22.30;74.70;;;;;;4969057;28;20073;-76
2023/05/27 12:09:16;;;;;;;10.85;5.55;;;22.30;75.20;;;;;;4970631;28;20031;-77
2023/05/27 12:11:42;;;;;;;10.80;5.85;;;22.30;76.30;;;;;;4969980;28;20031;-76
2023/05/27 12:14:08;;;;;;;8.93;5.03;;;22.30;76.10;;;;;;4972134;28;20512;-76
2023/05/27 12:16:37;;;;;;;9.27;5.00;;;22.30;74.00;;;;;;4969166;28;20029;-76
2023/05/27 12:19:03;;;;;;;11.05;4.90;;;22.30;72.80;;;;;;4963010;28;20035;-77
2023/05/27 12:21:37;;;;;;;8.43;5.47;;;22.30;71.30;;;;;;4964053;28;20026;-75
2023/05/27 12:24:03;;;;;;;16.13;6.10;;;22.30;71.20;;;;;;4968552;28;20505;-74
2023/05/27 12:26:29;;;;;;;9.55;5.10;;;22.30;70.80;;;;;;4967052;28;20029;-76
2023/05/27 12:29:04;;;;;;;11.50;4.72;;;22.30;72.80;;;;;;4961683;28;20389;-76
2023/05/27 12:31:29;;;;;;;8.43;5.57;;;22.30;72.80;;;;;;4969461;28;20034;-76
2023/05/27 12:33:58;;;;;;;8.95;4.88;;;22.30;73.40;;;;;;4968699;28;20027;-76
2023/05/27 12:36:23;;;;;;;10.57;5.72;;;22.30;74.60;;;;;;4960722;28;20066;-76
2023/05/27 12:38:49;;;;;;;9.10;4.88;;;22.30;75.00;;;;;;4955133;28;20029;-78
2023/05/27 12:41:18;;;;;;;12.02;5.97;;;22.30;75.30;;;;;;4962623;28;20039;-77
2023/05/27 12:43:49;;;;;;;11.00;5.70;;;22.30;75.70;;;;;;4982147;28;20520;-73
2023/05/27 12:46:15;;;;;;;8.02;4.97;;;22.40;74.40;;;;;;4968646;28;20041;-72
2023/05/27 12:48:41;;;;;;;11.15;5.72;;;22.40;74.90;;;;;;4969988;28;20389;-76